createdAt,value
2018-10-18T15:10:41.813Z,8.87
2018-10-18T15:13:25.252Z,11.53
2018-10-18T15:16:13.464Z,5.90
2018-10-18T15:18:58.269Z,4.20
2018-10-18T15:21:42.183Z,4.80
2018-10-18T15:24:29.603Z,6.93
2018-10-18T15:27:14.584Z,7.37
2018-10-18T15:30:02.179Z,7.97
2018-10-18T15:32:46.269Z,12.27
2018-10-18T15:35:30.462Z,9.37
2018-10-18T15:38:14.370Z,13.57
2018-10-18T15:40:57.929Z,12.23
2018-10-18T15:43:42.982Z,14.47
2018-10-18T15:46:27.128Z,22.70
2018-10-18T15:49:13.983Z,14.37
2018-10-18T15:52:00.899Z,15.57
2018-10-18T15:54:46.499Z,18.90
2018-10-18T15:57:29.579Z,15.23
2018-10-18T16:00:13.292Z,12.80
2018-10-18T16:02:56.099Z,18.90
2018-10-18T16:05:39.110Z,18.23
2018-10-18T16:08:22.753Z,16.50
2018-10-18T16:11:05.830Z,16.73
2018-10-18T16:13:48.825Z,15.77
2018-10-18T16:16:32.396Z,19.07
2018-10-18T16:19:16.921Z,15.97
2018-10-18T16:22:00.637Z,19.23
2018-10-18T16:24:44.615Z,22.47
2018-10-18T16:27:27.985Z,21.63
2018-10-18T16:30:11.934Z,22.40
2018-10-18T16:32:54.917Z,22.13
2018-10-18T16:35:38.148Z,17.30
2018-10-18T16:38:22.933Z,17.20
2018-10-18T16:41:06.562Z,19.57
2018-10-18T16:43:49.538Z,21.27
2018-10-18T16:46:32.653Z,19.53
2018-10-18T16:49:15.250Z,18.73
2018-10-18T16:51:58.995Z,18.20
2018-10-18T16:54:42.669Z,17.20
2018-10-18T16:57:25.759Z,17.57
2018-10-18T17:00:10.332Z,21.93
2018-10-18T17:02:52.970Z,19.30
2018-10-18T17:05:35.969Z,19.10
2018-10-18T17:08:19.744Z,22.23
2018-10-18T17:11:02.640Z,18.97
2018-10-18T17:13:45.623Z,18.80
2018-10-18T17:16:28.631Z,22.87
2018-10-18T17:19:11.974Z,17.20
2018-10-18T17:21:55.573Z,22.20
2018-10-18T17:24:38.889Z,19.17
2018-10-18T17:27:21.848Z,19.97
2018-10-18T17:30:04.687Z,21.97
2018-10-18T17:32:48.090Z,23.07
2018-10-18T17:35:30.994Z,22.97
2018-10-18T17:38:14.196Z,23.80
2018-10-18T17:40:57.638Z,23.40
2018-10-18T17:43:41.114Z,28.23
2018-10-18T17:46:24.048Z,23.47
2018-10-18T17:49:07.252Z,27.60
2018-10-18T17:51:50.146Z,28.93
2018-10-18T17:54:32.889Z,36.20
2018-10-18T17:57:16.016Z,27.13
2018-10-18T17:59:58.947Z,26.67
2018-10-18T18:02:42.405Z,31.50
2018-10-18T18:05:24.817Z,33.87
2018-10-18T18:08:07.882Z,31.73
2018-10-18T18:10:51.255Z,28.33
2018-10-18T18:13:34.556Z,26.60
2018-10-18T18:16:17.836Z,27.10
2018-10-18T18:19:00.746Z,24.07
2018-10-18T18:21:43.277Z,24.73
2018-10-18T18:24:26.578Z,22.17
2018-10-18T18:27:09.219Z,22.03
2018-10-18T18:29:52.333Z,22.50
2018-10-18T18:32:35.411Z,21.30
2018-10-18T18:35:18.537Z,17.23
2018-10-18T18:38:01.842Z,17.10
2018-10-18T18:40:44.276Z,24.73
2018-10-18T18:43:28.242Z,22.33
2018-10-18T18:46:11.126Z,16.70
2018-10-18T18:48:54.594Z,18.00
2018-10-18T18:51:37.621Z,21.83
2018-10-18T18:54:20.438Z,15.53
2018-10-18T18:57:04.052Z,15.50
2018-10-18T18:59:47.165Z,16.27
2018-10-18T19:02:30.807Z,17.33
2018-10-18T19:05:14.184Z,16.40
2018-10-18T19:07:56.860Z,13.70
2018-10-18T19:10:40.640Z,13.57
2018-10-18T19:13:23.359Z,18.27
2018-10-18T19:16:05.902Z,18.17
2018-10-18T19:18:49.348Z,15.83
2018-10-18T19:21:32.672Z,14.67
2018-10-18T19:24:16.108Z,13.83
2018-10-18T19:26:58.873Z,17.13
2018-10-18T19:29:41.744Z,16.73
2018-10-18T19:32:24.788Z,17.60
2018-10-18T19:35:07.306Z,16.30
2018-10-18T19:37:49.989Z,15.30
2018-10-18T19:40:33.939Z,13.93
2018-10-18T19:43:17.965Z,17.37
2018-10-18T19:46:00.930Z,18.07
2018-10-18T19:48:44.233Z,13.37
2018-10-18T19:51:26.626Z,13.13
2018-10-18T19:54:11.923Z,18.40
2018-10-18T19:56:54.766Z,14.50
2018-10-18T19:59:38.162Z,14.53
2018-10-18T20:02:21.179Z,15.43
2018-10-18T20:05:03.949Z,17.13
2018-10-18T20:07:47.024Z,20.53
2018-10-18T20:10:30.682Z,16.10
2018-10-18T20:13:14.286Z,15.63
2018-10-18T20:15:57.265Z,16.93
2018-10-18T20:18:39.893Z,16.50
2018-10-18T20:21:23.154Z,16.27
2018-10-18T20:24:06.179Z,19.07
2018-10-18T20:26:49.101Z,19.20
2018-10-18T20:29:31.945Z,18.30
2018-10-18T20:32:15.010Z,18.23
2018-10-18T20:34:57.633Z,17.10
2018-10-18T20:37:41.205Z,19.37
2018-10-18T20:40:24.458Z,18.03
2018-10-18T20:43:07.873Z,16.83
2018-10-18T20:45:51.284Z,20.70
2018-10-18T20:48:34.476Z,20.03
2018-10-18T20:51:16.952Z,20.33
2018-10-18T20:54:00.248Z,26.53
2018-10-18T20:56:43.245Z,18.23
2018-10-18T20:59:26.251Z,16.07
2018-10-18T21:02:09.153Z,19.63
2018-10-18T21:04:52.428Z,19.17
2018-10-18T21:07:35.617Z,18.83
2018-10-18T21:10:19.163Z,20.33
2018-10-18T21:13:02.232Z,20.33
2018-10-18T21:15:45.321Z,20.13
2018-10-18T21:18:29.889Z,19.77
2018-10-18T21:21:12.561Z,27.40
2018-10-18T21:23:55.805Z,24.17
2018-10-18T21:26:39.438Z,17.40
2018-10-18T21:29:22.393Z,24.63
2018-10-18T21:32:05.393Z,23.07
2018-10-18T21:34:49.394Z,25.50
2018-10-18T21:37:32.095Z,23.07
2018-10-18T21:40:14.865Z,24.60
2018-10-18T21:42:57.876Z,23.43
2018-10-18T21:45:40.834Z,26.77
2018-10-18T21:48:23.574Z,26.37
2018-10-18T21:51:07.104Z,26.07
2018-10-18T21:53:49.668Z,26.83
2018-10-18T21:56:32.888Z,29.87
2018-10-18T21:59:16.398Z,26.77
2018-10-18T22:01:59.236Z,27.80
2018-10-18T22:04:42.573Z,28.30
2018-10-18T22:07:24.981Z,28.43
2018-10-18T22:10:08.304Z,31.00
2018-10-18T22:12:51.409Z,30.20
2018-10-18T22:15:34.501Z,33.13
2018-10-18T22:18:17.781Z,30.67
2018-10-18T22:21:00.647Z,32.60
2018-10-18T22:23:43.719Z,32.67
2018-10-18T22:26:26.862Z,36.77
2018-10-18T22:29:10.494Z,38.03
2018-10-18T22:31:53.433Z,34.40
2018-10-18T22:34:37.232Z,35.20
2018-10-18T22:37:20.182Z,38.97
2018-10-18T22:40:03.250Z,34.37
2018-10-18T22:42:47.075Z,41.17
2018-10-18T22:45:30.052Z,34.90
2018-10-18T22:48:12.672Z,40.77
2018-10-18T22:50:56.522Z,37.00
2018-10-18T22:53:39.520Z,37.43
2018-10-18T22:56:22.433Z,42.83
2018-10-18T22:59:06.077Z,43.17
2018-10-18T23:01:49.393Z,39.07
2018-10-18T23:04:32.225Z,41.17
2018-10-18T23:07:15.689Z,35.67
2018-10-18T23:09:59.015Z,38.70
2018-10-18T23:12:42.121Z,45.63
2018-10-18T23:15:25.836Z,40.10
2018-10-18T23:18:09.669Z,39.03
2018-10-18T23:20:52.113Z,39.57
2018-10-18T23:23:35.358Z,40.20
2018-10-18T23:26:18.557Z,44.83
2018-10-18T23:29:01.597Z,39.33
2018-10-18T23:31:44.824Z,46.07
2018-10-18T23:34:27.913Z,36.53
2018-10-18T23:40:56.201Z,44.30
2018-10-18T23:43:39.244Z,41.67
2018-10-18T23:46:22.082Z,37.63
2018-10-18T23:49:05.108Z,39.20
2018-10-18T23:51:48.930Z,43.03
2018-10-18T23:54:32.243Z,39.90
2018-10-18T23:57:15.773Z,38.70
2018-10-18T23:59:58.613Z,45.87
